Time;durP1;ratioP1;P1;durP2;ratioP2;P2;SDS_P1;SDS_P2;PMS_P1;PMS_P2;Temp;Humidity;BMP_temperature;BMP_pressure;BME280_temperature;BME280_humidity;BME280_pressure;Samples;Min_cycle;Max_cycle;Signal;HPM_P1;HPM_P2
2022/07/31 00:00:28;;;;;;;;;3.00;3.00;;;;;22.17;53.98;101088.22;5079194;27;46376;-79
2022/07/31 00:02:54;;;;;;;;;2.00;2.00;;;;;22.22;53.97;101087.81;5079217;27;45325;-78
2022/07/31 00:05:19;;;;;;;;;2.50;2.50;;;;;22.18;53.93;101081.88;5079563;27;45355;-79
2022/07/31 00:07:44;;;;;;;;;1.00;1.00;;;;;22.20;54.04;101081.72;5077902;27;45592;-78
2022/07/31 00:10:10;;;;;;;;;1.00;1.00;;;;;22.19;53.93;101093.44;5078833;28;46252;-78
2022/07/31 00:12:35;;;;;;;;;0.25;0.25;;;;;22.17;54.04;101090.03;5077703;27;45453;-80
2022/07/31 00:15:04;;;;;;;;;0.00;0.00;;;;;22.04;53.98;101076.78;5079364;27;45338;-79
2022/07/31 00:17:29;;;;;;;;;0.50;0.50;;;;;22.11;54.62;101101.25;5079282;27;45271;-80
2022/07/31 00:19:54;;;;;;;;;0.00;0.00;;;;;22.09;54.48;101090.66;5078753;27;45325;-80
2022/07/31 00:22:20;;;;;;;;;2.25;2.25;;;;;21.99;54.38;101079.00;5079145;27;45343;-80
2022/07/31 00:24:45;;;;;;;;;0.25;0.25;;;;;21.91;54.47;101066.22;5078562;27;45835;-81
2022/07/31 00:27:11;;;;;;;;;1.00;1.00;;;;;21.90;54.73;101069.88;5079448;27;45317;-80
2022/07/31 00:29:37;;;;;;;;;1.25;1.25;;;;;21.87;54.91;101068.31;5078714;27;45505;-79
2022/07/31 00:32:03;;;;;;;;;1.25;1.25;;;;;21.92;54.75;101085.81;5078758;27;45243;-81
2022/07/31 00:34:28;;;;;;;;;5.50;5.50;;;;;21.88;54.56;101082.53;5077368;27;45362;-80
2022/07/31 00:36:53;;;;;;;;;2.00;2.00;;;;;21.89;55.03;101085.09;5079039;27;45572;-79
2022/07/31 00:39:19;;;;;;;;;3.00;3.00;;;;;21.91;54.91;101090.31;5079565;27;46190;-80
2022/07/31 00:41:45;;;;;;;;;2.50;2.50;;;;;21.77;55.16;101072.69;5078844;27;45399;-81
2022/07/31 00:44:12;;;;;;;;;1.25;1.25;;;;;21.81;55.13;101078.63;5082181;27;45394;-78
2022/07/31 00:46:37;;;;;;;;;2.00;2.00;;;;;21.84;55.07;101089.97;5088834;27;44869;-79
2022/07/31 00:49:06;;;;;;;;;2.00;2.00;;;;;21.79;55.28;101080.59;5099185;27;45468;-78
2022/07/31 00:51:31;;;;;;;;;1.25;1.25;;;;;21.69;55.58;101073.28;5104075;27;45311;-79
2022/07/31 00:53:56;;;;;;;;;1.00;1.00;;;;;21.73;55.53;101085.47;5082303;27;45281;-79
2022/07/31 00:56:22;;;;;;;;;1.00;1.00;;;;;21.62;55.84;101069.38;5078630;27;45614;-79
2022/07/31 00:58:47;;;;;;;;;1.75;1.75;;;;;21.65;56.05;101082.53;5078047;27;46196;-79
2022/07/31 01:01:13;;;;;;;;;3.00;3.00;;;;;21.57;55.76;101077.75;5077915;27;45336;-79
2022/07/31 01:03:38;;;;;;;;;1.00;1.00;;;;;21.56;55.60;101078.72;5078062;27;45649;-80
2022/07/31 01:06:05;;;;;;;;;2.50;2.50;;;;;21.56;56.09;101085.91;5078270;27;45239;-80
2022/07/31 01:08:30;;;;;;;;;2.25;2.25;;;;;21.54;56.07;101090.53;5077651;28;46247;-79
2022/07/31 01:11:29;;;;;;;;;1.75;1.75;;;;;21.50;56.29;101092.59;5077505;27;45441;-79
2022/07/31 01:13:58;;;;;;;;;1.00;1.00;;;;;21.35;56.64;101075.06;5078376;27;45366;-79
2022/07/31 01:16:29;;;;;;;;;0.75;0.75;;;;;21.39;56.97;101095.25;5079509;27;45210;-79
2022/07/31 01:18:56;;;;;;;;;1.00;1.00;;;;;21.32;57.08;101086.88;5082985;27;46719;-80
2022/07/31 01:21:41;;;;;;;;;1.00;1.00;;;;;21.30;56.78;101088.81;5089203;28;45315;-80
2022/07/31 01:24:54;;;;;;;;;1.00;1.00;;;;;21.30;57.01;101102.19;5088204;27;45193;-79
2022/07/31 01:27:44;;;;;;;;;0.25;0.25;;;;;21.27;57.26;101102.44;5077335;27;45385;-77
2022/07/31 01:30:11;;;;;;;;;1.00;1.00;;;;;21.14;57.22;101083.78;5081121;27;45551;-78
2022/07/31 01:32:42;;;;;;;;;0.00;0.00;;;;;21.07;57.93;101079.91;5079838;27;45471;-82
2022/07/31 01:35:19;;;;;;;;;0.50;0.50;;;;;21.08;57.92;101081.59;5079712;27;45537;-78
2022/07/31 01:37:52;;;;;;;;;0.50;0.50;;;;;21.09;58.12;101092.16;5079508;27;45321;-79
2022/07/31 01:40:36;;;;;;;;;0.00;0.00;;;;;21.05;58.11;101095.22;5084505;27;47230;-79
2022/07/31 01:43:10;;;;;;;;;0.00;0.00;;;;;20.99;58.35;101093.84;5083879;27;45392;-80
2022/07/31 01:45:39;;;;;;;;;1.00;1.00;;;;;20.95;58.21;101098.59;5079710;27;45286;-81
2022/07/31 01:48:07;;;;;;;;;1.00;1.00;;;;;20.85;58.59;101079.69;5078995;27;45441;-81
2022/07/31 01:50:34;;;;;;;;;0.25;0.25;;;;;20.87;58.39;101084.94;5079039;27;46730;-80
2022/07/31 01:53:00;;;;;;;;;1.00;1.00;;;;;20.90;59.10;101091.88;5078922;27;45380;-79
2022/07/31 01:55:26;;;;;;;;;2.00;2.00;;;;;20.87;58.97;101092.97;5079735;27;45317;-78
2022/07/31 01:57:54;;;;;;;;;0.00;0.00;;;;;20.85;58.89;101095.75;5078691;27;45449;-79
2022/07/31 02:00:20;;;;;;;;;1.00;1.00;;;;;20.76;59.42;101087.56;5078354;28;46623;-77
2022/07/31 02:02:48;;;;;;;;;1.00;1.00;;;;;20.77;59.30;101083.91;5079481;27;45318;-80
2022/07/31 02:05:16;;;;;;;;;0.75;0.75;;;;;20.77;59.54;101095.44;5080092;27;45464;-78
2022/07/31 02:07:44;;;;;;;;;0.00;0.00;;;;;20.66;59.86;101082.03;5084557;27;45446;-78
2022/07/31 02:10:13;;;;;;;;;1.00;1.00;;;;;20.65;60.05;101074.97;5083766;27;45524;-79
2022/07/31 02:12:40;;;;;;;;;0.25;0.25;;;;;20.70;59.49;101091.53;5089120;27;45380;-80
2022/07/31 02:15:09;;;;;;;;;1.00;1.00;;;;;20.64;59.62;101094.66;5088955;27;44680;-79
2022/07/31 02:17:36;;;;;;;;;1.00;1.00;;;;;20.62;60.07;101091.25;5090477;27;45603;-78
2022/07/31 02:20:04;;;;;;;;;0.00;0.00;;;;;20.60;60.28;101087.84;5087879;27;45333;-78
2022/07/31 02:22:30;;;;;;;;;1.00;1.00;;;;;20.46;60.43;101076.38;5081987;27;45279;-80
2022/07/31 02:24:56;;;;;;;;;1.00;1.00;;;;;20.55;60.79;101097.06;5082810;27;45231;-80
2022/07/31 02:27:23;;;;;;;;;0.00;0.00;;;;;20.54;60.79;101097.16;5079289;27;45511;-78
2022/07/31 02:29:49;;;;;;;;;0.00;0.00;;;;;20.36;61.16;101080.69;5077833;27;46621;-78
2022/07/31 02:32:16;;;;;;;;;0.50;0.50;;;;;20.36;60.89;101089.53;5077146;27;45642;-79
2022/07/31 02:34:43;;;;;;;;;0.00;0.00;;;;;20.38;61.18;101094.78;5077018;27;45333;-78
2022/07/31 02:37:10;;;;;;;;;0.25;0.25;;;;;20.39;61.22;101104.50;5077391;27;45502;-78
2022/07/31 02:39:37;;;;;;;;;0.00;0.00;;;;;20.35;61.54;101101.19;5076979;27;45443;-78
2022/07/31 02:42:03;;;;;;;;;0.25;0.25;;;;;20.21;61.56;101074.66;5079747;27;45276;-79
2022/07/31 02:44:31;;;;;;;;;0.00;0.00;;;;;20.32;61.80;101104.09;5098541;27;44799;-79
2022/07/31 02:46:58;;;;;;;;;0.00;0.00;;;;;20.15;62.01;101070.63;5098687;27;45262;-78
2022/07/31 02:49:24;;;;;;;;;0.00;0.00;;;;;20.11;62.32;101063.78;5096801;28;45442;-79
2022/07/31 02:51:50;;;;;;;;;0.00;0.00;;;;;20.24;62.12;101082.44;5099109;28;45210;-78
2022/07/31 02:54:16;;;;;;;;;1.00;1.00;;;;;20.19;62.98;101079.25;5077493;27;45353;-82
2022/07/31 02:56:43;;;;;;;;;0.00;0.00;;;;;20.08;63.17;101062.19;5077707;27;45295;-80
2022/07/31 02:59:08;;;;;;;;;1.00;1.00;;;;;20.16;63.35;101088.34;5077671;27;45356;-80
2022/07/31 03:01:35;;;;;;;;;0.25;0.25;;;;;20.08;63.48;101082.69;5077841;27;45383;-79
2022/07/31 03:04:00;;;;;;;;;1.25;1.25;;;;;20.02;63.78;101083.13;5079118;27;45394;-79
2022/07/31 03:06:26;;;;;;;;;1.00;1.00;;;;;19.90;65.37;101067.03;5079748;27;45437;-71
2022/07/31 03:08:51;;;;;;;;;1.00;1.00;;;;;19.92;66.20;101078.47;5075161;27;46162;-72
2022/07/31 03:11:16;;;;;;;;;2.00;2.00;;;;;19.91;67.24;101078.59;5075470;27;45302;-70
2022/07/31 03:13:42;;;;;;;;;1.25;1.25;;;;;19.83;67.67;101077.28;5075496;27;45440;-73
2022/07/31 03:16:10;;;;;;;;;2.25;2.25;;;;;19.80;67.52;101084.66;5076003;27;45546;-73
2022/07/31 03:18:37;;;;;;;;;3.00;3.00;;;;;19.75;67.94;101076.13;5075367;27;46153;-72
2022/07/31 03:21:03;;;;;;;;;3.75;3.75;;;;;19.71;68.48;101070.16;5075462;28;45322;-69
2022/07/31 03:23:35;;;;;;;;;3.00;3.00;;;;;19.71;68.10;101071.00;5075523;27;45397;-69
2022/07/31 03:26:01;;;;;;;;;2.50;2.50;;;;;19.69;68.36;101070.25;5074235;28;45230;-70
2022/07/31 03:28:26;;;;;;;;;4.00;4.00;;;;;19.74;68.38;101071.75;5075059;27;45906;-72
2022/07/31 03:30:52;;;;;;;;;5.00;5.00;;;;;19.79;68.07;101074.94;5075175;27;45245;-73
2022/07/31 03:33:18;;;;;;;;;5.00;5.00;;;;;19.81;68.63;101070.34;5075319;27;45359;-72
2022/07/31 03:35:43;;;;;;;;;7.75;7.75;;;;;19.76;68.71;101070.69;5075281;28;45602;-73
2022/07/31 03:38:08;;;;;;;;;7.50;6.75;;;;;19.70;68.55;101055.09;5074824;27;45400;-72
2022/07/31 03:40:34;;;;;;;;;8.00;8.00;;;;;19.68;69.00;101070.38;5074999;27;45278;-71
2022/07/31 03:43:02;;;;;;;;;9.25;9.25;;;;;19.61;69.34;101067.28;5075311;28;45370;-73
2022/07/31 03:45:29;;;;;;;;;10.75;10.75;;;;;19.61;69.06;101059.28;5075320;27;45279;-73
2022/07/31 03:47:55;;;;;;;;;13.00;13.00;;;;;19.65;69.58;101062.59;5074460;27;46231;-71
2022/07/31 03:50:21;;;;;;;;;11.50;11.50;;;;;19.63;69.23;101056.50;5074771;27;45208;-73
2022/07/31 03:52:48;;;;;;;;;16.75;16.75;;;;;19.63;69.50;101054.69;5074932;27;45409;-73
2022/07/31 03:55:14;;;;;;;;;14.50;14.50;;;;;19.64;69.29;101059.06;5073784;27;45552;-73
2022/07/31 03:57:41;;;;;;;;;16.00;16.00;;;;;19.70;68.22;101058.63;5074810;27;46655;-73
2022/07/31 04:00:07;;;;;;;;;19.75;19.75;;;;;19.84;68.11;101067.44;5074729;27;45345;-72
2022/07/31 04:02:33;;;;;;;;;14.75;14.25;;;;;19.94;67.67;101065.84;5073823;27;45504;-69
2022/07/31 04:04:59;;;;;;;;;16.25;16.25;;;;;19.98;67.09;101062.00;5075454;27;45332;-71
2022/07/31 04:07:24;;;;;;;;;16.25;16.25;;;;;20.10;66.88;101065.59;5074848;27;46152;-72
2022/07/31 04:09:50;;;;;;;;;19.25;19.25;;;;;20.17;66.54;101059.81;5075094;27;45250;-72
2022/07/31 04:12:15;;;;;;;;;19.00;18.00;;;;;20.15;66.21;101062.59;5073682;28;45315;-71
2022/07/31 04:14:41;;;;;;;;;17.25;17.25;;;;;20.18;66.23;101062.38;5075400;27;45474;-72
2022/07/31 04:17:07;;;;;;;;;16.75;16.75;;;;;20.26;65.39;101049.31;5074303;27;46001;-71
2022/07/31 04:19:32;;;;;;;;;17.25;17.25;;;;;20.43;65.15;101050.72;5074959;28;45213;-71
2022/07/31 04:21:59;;;;;;;;;16.75;16.75;;;;;20.48;64.66;101047.72;5077394;27;45231;-70
2022/07/31 04:24:24;;;;;;;;;16.00;16.00;;;;;20.49;64.45;101054.75;5078183;28;45613;-78
2022/07/31 04:26:50;;;;;;;;;16.50;16.50;;;;;20.42;64.45;101054.34;5076806;27;45534;-79
2022/07/31 04:29:16;;;;;;;;;15.25;15.25;;;;;20.41;64.30;101046.47;5078435;27;45377;-74
2022/07/31 04:31:42;;;;;;;;;18.25;18.25;;;;;20.32;64.33;101052.50;5079344;27;45282;-77
2022/07/31 04:34:08;;;;;;;;;16.50;16.50;;;;;20.28;64.59;101058.06;5078733;27;45603;-75
2022/07/31 04:36:33;;;;;;;;;16.25;16.25;;;;;20.24;65.20;101066.41;5078380;27;45504;-77
2022/07/31 04:39:00;;;;;;;;;16.00;16.00;;;;;20.26;64.88;101070.69;5078071;27;45414;-73
2022/07/31 04:41:25;;;;;;;;;16.00;16.00;;;;;20.21;64.72;101066.63;5078170;27;45327;-72
2022/07/31 04:43:51;;;;;;;;;15.75;15.75;;;;;20.24;64.55;101064.59;5080666;27;45279;-70
2022/07/31 04:46:16;;;;;;;;;11.50;11.50;;;;;20.27;64.88;101068.84;5084083;27;45326;-72
2022/07/31 04:48:42;;;;;;;;;10.25;10.25;;;;;20.23;64.57;101046.88;5086186;27;45357;-75
2022/07/31 04:51:07;;;;;;;;;10.25;10.25;;;;;20.24;65.19;101053.91;5087511;27;45154;-71
2022/07/31 04:53:32;;;;;;;;;8.00;8.00;;;;;20.25;65.17;101060.97;5084146;27;45310;-78
2022/07/31 04:58:49;;;;;;;;;8.00;8.00;;;;;20.23;64.63;101060.22;5069489;27;45410;-76
2022/07/31 05:01:14;;;;;;;;;8.25;8.25;;;;;20.28;64.61;101067.88;5076429;27;45318;-75
2022/07/31 05:03:40;;;;;;;;;7.00;7.00;;;;;20.26;64.74;101059.13;5078379;27;45330;-78
2022/07/31 05:06:12;;;;;;;;;6.00;6.00;;;;;20.31;64.92;101064.16;5078194;27;45287;-76
2022/07/31 05:08:38;;;;;;;;;8.00;8.00;;;;;20.35;64.86;101068.28;5077792;27;45360;-75
2022/07/31 05:11:22;;;;;;;;;5.25;5.25;;;;;20.36;64.79;101060.16;5078159;27;45349;-74
2022/07/31 05:13:53;;;;;;;;;5.00;5.00;;;;;20.46;64.22;101060.34;5077580;27;45481;-77
2022/07/31 05:16:19;;;;;;;;;5.00;5.00;;;;;20.51;64.22;101063.50;5076566;28;45485;-77
2022/07/31 05:18:45;;;;;;;;;6.00;6.00;;;;;20.54;64.09;101067.75;5077765;27;45460;-76
2022/07/31 05:21:12;;;;;;;;;3.50;3.50;;;;;20.59;63.95;101062.91;5077817;27;45374;-78
2022/07/31 05:23:38;;;;;;;;;6.00;6.00;;;;;20.66;64.35;101060.66;5077540;27;45413;-76
2022/07/31 05:26:04;;;;;;;;;6.00;6.00;;;;;20.68;63.83;101070.28;5079033;27;46069;-77
2022/07/31 05:28:30;;;;;;;;;8.25;8.25;;;;;20.66;63.69;101066.00;5077646;27;45401;-79
2022/07/31 05:30:55;;;;;;;;;8.00;8.00;;;;;20.65;63.54;101074.97;5078384;27;45226;-78
2022/07/31 05:33:21;;;;;;;;;5.25;5.25;;;;;20.68;63.52;101064.06;5078826;27;45414;-75
2022/07/31 05:35:46;;;;;;;;;5.00;5.00;;;;;20.68;63.71;101070.28;5077661;27;46310;-78
2022/07/31 05:38:12;;;;;;;;;5.00;5.00;;;;;20.68;63.73;101051.56;5078121;28;45258;-77
2022/07/31 05:40:37;;;;;;;;;6.50;6.50;;;;;20.80;63.27;101052.47;5077995;27;45387;-79
2022/07/31 05:43:02;;;;;;;;;7.00;7.00;;;;;20.92;63.20;101057.84;5077452;27;45227;-76
2022/07/31 05:45:28;;;;;;;;;7.00;7.00;;;;;20.99;63.27;101051.91;5077350;27;46459;-75
2022/07/31 05:47:53;;;;;;;;;6.00;6.00;;;;;21.01;62.79;101058.00;5077544;27;45302;-77
2022/07/31 05:50:20;;;;;;;;;7.75;7.75;;;;;21.09;62.77;101067.25;5077337;27;45378;-75
2022/07/31 05:52:45;;;;;;;;;7.00;7.00;;;;;21.14;62.56;101065.06;5077387;27;45377;-76
2022/07/31 05:55:11;;;;;;;;;6.50;6.50;;;;;21.17;62.47;101068.34;5075496;28;47102;-73
2022/07/31 05:57:36;;;;;;;;;6.00;6.00;;;;;21.19;62.48;101062.03;5077785;27;45401;-74
2022/07/31 06:00:03;;;;;;;;;6.00;6.00;;;;;21.19;62.13;101076.25;5077569;27;45313;-77
2022/07/31 06:02:28;;;;;;;;;6.00;6.00;;;;;21.15;61.98;101072.97;5077190;27;45378;-75
2022/07/31 06:04:53;;;;;;;;;8.00;8.00;;;;;21.16;62.02;101072.00;5075076;27;46072;-76
2022/07/31 06:07:19;;;;;;;;;6.75;6.75;;;;;21.19;62.25;101072.72;5077250;27;45412;-77
2022/07/31 06:09:44;;;;;;;;;6.25;6.25;;;;;21.23;62.03;101079.56;5077841;27;45460;-76
2022/07/31 06:12:09;;;;;;;;;7.00;7.00;;;;;21.25;61.52;101073.13;5077099;27;45559;-73
2022/07/31 06:14:35;;;;;;;;;7.75;7.75;;;;;21.30;61.52;101070.94;5077015;27;46616;-80
2022/07/31 06:17:04;;;;;;;;;6.75;6.75;;;;;21.40;61.40;101059.50;5076816;27;45303;-80
2022/07/31 06:19:31;;;;;;;;;5.00;5.00;;;;;21.43;61.08;101060.13;5076751;27;45332;-74
2022/07/31 06:21:56;;;;;;;;;5.50;5.50;;;;;21.51;60.70;101066.69;5076772;27;45302;-79
2022/07/31 06:24:22;;;;;;;;;5.00;5.00;;;;;21.52;60.65;101060.38;5074997;27;48133;-77
2022/07/31 06:26:47;;;;;;;;;6.00;6.00;;;;;21.55;60.54;101070.84;5076678;27;45380;-77
2022/07/31 06:29:12;;;;;;;;;5.75;5.75;;;;;21.59;60.41;101072.28;5076723;27;45261;-78
2022/07/31 06:31:38;;;;;;;;;5.00;5.00;;;;;21.66;60.09;101068.19;5077310;27;45658;-80
2022/07/31 06:34:03;;;;;;;;;5.00;5.00;;;;;21.82;59.56;101075.00;5077020;27;46235;-79
2022/07/31 06:36:28;;;;;;;;;6.00;6.00;;;;;21.92;59.45;101078.63;5076828;27;45432;-72
2022/07/31 06:38:54;;;;;;;;;5.50;5.50;;;;;21.96;59.55;101072.03;5075404;27;45383;-79
2022/07/31 06:44:03;;;;;;;;;4.50;4.50;;;;;22.10;58.97;101075.44;5089013;27;45365;-72
2022/07/31 06:46:29;;;;;;;;;5.25;5.25;;;;;22.15;58.64;101074.09;5092809;28;45372;-75
2022/07/31 06:48:54;;;;;;;;;5.50;5.50;;;;;22.12;58.84;101086.88;5094463;27;45387;-74
2022/07/31 06:51:20;;;;;;;;;5.00;5.00;;;;;22.14;58.46;101083.09;5081237;27;45630;-74
2022/07/31 06:53:45;;;;;;;;;5.25;5.25;;;;;22.22;58.59;101073.59;5076285;27;45250;-72
2022/07/31 06:56:11;;;;;;;;;6.75;6.75;;;;;22.35;58.34;101074.28;5076917;28;45249;-72
2022/07/31 06:58:36;;;;;;;;;6.75;6.75;;;;;22.41;57.75;101076.44;5077195;27;45230;-71
2022/07/31 07:01:01;;;;;;;;;5.00;5.00;;;;;22.45;57.42;101088.66;5080561;27;45284;-75
2022/07/31 07:03:27;;;;;;;;;4.00;4.00;;;;;22.49;57.31;101086.56;5081722;27;46588;-72
2022/07/31 07:05:52;;;;;;;;;8.75;8.75;;;;;22.54;57.19;101089.72;5081326;27;45443;-74
2022/07/31 07:08:19;;;;;;;;;5.00;5.00;;;;;22.52;56.97;101083.63;5077499;27;45391;-76
2022/07/31 07:10:44;;;;;;;;;6.00;6.00;;;;;22.56;56.96;101095.81;5076799;27;45448;-75
2022/07/31 07:13:09;;;;;;;;;4.75;4.75;;;;;22.65;56.59;101083.44;5076575;27;46562;-78
2022/07/31 07:15:35;;;;;;;;;7.25;7.25;;;;;22.75;56.09;101079.00;5076436;27;45574;-78
2022/07/31 07:18:00;;;;;;;;;4.75;4.75;;;;;22.81;55.67;101085.69;5075098;27;45362;-75
2022/07/31 07:20:26;;;;;;;;;6.00;6.00;;;;;22.91;55.54;101100.03;5076548;27;45557;-79
2022/07/31 07:22:51;;;;;;;;;5.25;5.25;;;;;22.91;55.75;101089.31;5075789;27;45903;-78
2022/07/31 07:25:19;;;;;;;;;5.75;5.75;;;;;22.97;55.45;101089.75;5075130;28;45355;-75
2022/07/31 07:27:45;;;;;;;;;6.50;6.50;;;;;23.08;54.84;101097.75;5078960;27;45377;-77
2022/07/31 07:30:10;;;;;;;;;6.25;6.25;;;;;23.13;54.97;101102.72;5080060;27;45193;-79
2022/07/31 07:32:35;;;;;;;;;5.25;5.25;;;;;23.16;55.26;101099.78;5076406;27;46497;-76
2022/07/31 07:35:02;;;;;;;;;4.00;4.00;;;;;23.14;55.04;101109.81;5076374;27;45237;-79
2022/07/31 07:37:28;;;;;;;;;6.25;6.25;;;;;23.10;54.85;101101.16;5076273;27;45224;-80
2022/07/31 07:39:53;;;;;;;;;5.50;5.50;;;;;23.11;55.20;101102.84;5076680;27;45725;-80
2022/07/31 07:42:19;;;;;;;;;4.00;4.00;;;;;23.07;55.33;101092.53;5075404;28;46066;-81
2022/07/31 07:44:44;;;;;;;;;6.00;6.00;;;;;23.11;55.10;101092.13;5077169;27;45287;-77
2022/07/31 07:47:09;;;;;;;;;6.75;6.75;;;;;23.20;54.53;101101.22;5077991;27;45315;-80
2022/07/31 07:49:35;;;;;;;;;7.00;7.00;;;;;23.30;54.02;101110.22;5079544;27;45313;-76
2022/07/31 07:52:01;;;;;;;;;6.00;6.00;;;;;23.40;53.91;101110.28;5080079;27;45615;-76
2022/07/31 07:54:27;;;;;;;;;7.75;7.75;;;;;23.46;53.60;101111.56;5080827;27;45440;-76
2022/07/31 07:56:53;;;;;;;;;6.25;6.25;;;;;23.61;52.99;101112.06;5083952;27;45337;-75
2022/07/31 07:59:19;;;;;;;;;4.25;4.25;;;;;23.73;52.73;101115.50;5088587;27;45344;-74
2022/07/31 08:01:45;;;;;;;;;6.75;6.75;;;;;23.63;52.64;101110.09;5090692;28;45362;-79
2022/07/31 08:04:10;;;;;;;;;5.25;5.25;;;;;23.63;52.82;101108.25;5085618;27;45265;-73
2022/07/31 08:06:35;;;;;;;;;6.25;6.25;;;;;23.73;52.71;101102.06;5082612;27;45704;-73
2022/07/31 08:09:01;;;;;;;;;7.50;7.50;;;;;23.80;52.64;101099.72;5082468;27;45425;-78
2022/07/31 08:11:26;;;;;;;;;8.00;8.00;;;;;23.86;52.28;101099.16;5082334;27;46020;-75
2022/07/31 08:13:52;;;;;;;;;7.00;7.00;;;;;23.99;52.40;101098.94;5079780;27;45816;-77
2022/07/31 08:16:19;;;;;;;;;4.75;4.75;;;;;24.07;51.80;101108.03;5079675;27;45303;-75
2022/07/31 08:18:44;;;;;;;;;6.50;6.50;;;;;24.10;51.23;101111.41;5079974;27;45211;-79
2022/07/31 08:21:10;;;;;;;;;7.50;7.50;;;;;24.03;51.29;101117.34;5078787;28;45556;-79
2022/07/31 08:23:35;;;;;;;;;7.00;7.00;;;;;24.04;52.03;101110.97;5078879;27;45402;-77
2022/07/31 08:26:03;;;;;;;;;7.50;7.50;;;;;24.22;51.41;101113.00;5079153;27;45404;-80
2022/07/31 08:28:28;;;;;;;;;4.00;4.00;;;;;24.32;51.58;101105.81;5079276;27;45415;-79
2022/07/31 08:30:54;;;;;;;;;6.25;6.25;;;;;24.44;50.57;101109.22;5078638;27;45574;-75
2022/07/31 08:33:20;;;;;;;;;6.75;6.75;;;;;24.50;51.10;101105.97;5078727;27;45399;-74
2022/07/31 08:35:45;;;;;;;;;6.75;6.75;;;;;24.62;50.80;101100.47;5079251;27;45303;-73
2022/07/31 08:38:11;;;;;;;;;8.00;8.00;;;;;24.82;50.63;101106.72;5078356;27;45626;-72
2022/07/31 08:40:37;;;;;;;;;6.00;6.00;;;;;24.90;50.12;101106.88;5079147;27;45347;-75
2022/07/31 08:43:03;;;;;;;;;6.00;6.00;;;;;24.94;49.59;101108.28;5082931;27;45257;-74
2022/07/31 08:45:30;;;;;;;;;7.00;7.00;;;;;24.80;49.79;101106.03;5082325;27;45245;-72
2022/07/31 08:47:58;;;;;;;;;8.25;8.25;;;;;24.80;50.19;101093.41;5084160;27;45392;-73
2022/07/31 08:50:24;;;;;;;;;9.00;9.00;;;;;25.02;49.82;101088.72;5082291;27;45541;-73
2022/07/31 08:52:49;;;;;;;;;8.00;8.00;;;;;25.23;49.06;101099.28;5079570;27;45449;-75
2022/07/31 08:55:16;;;;;;;;;9.25;9.25;;;;;25.28;49.04;101106.06;5077752;27;45368;-74
2022/07/31 08:57:41;;;;;;;;;13.00;13.00;;;;;25.42;49.01;101099.41;5078900;27;45345;-76
2022/07/31 09:00:11;;;;;;;;;6.00;6.00;;;;;25.57;48.47;101097.13;5078841;27;46099;-73
2022/07/31 09:02:41;;;;;;;;;9.75;9.75;;;;;25.56;47.93;101107.03;5078299;27;45449;-74
2022/07/31 09:05:07;;;;;;;;;7.50;7.50;;;;;25.49;48.11;101104.09;5077832;27;45397;-78
2022/07/31 09:07:33;;;;;;;;;7.25;7.25;;;;;25.44;48.03;101100.94;5077640;27;45584;-78
2022/07/31 09:09:58;;;;;;;;;7.25;7.25;;;;;25.45;47.87;101105.38;5077722;27;46309;-74
2022/07/31 09:12:29;;;;;;;;;9.00;9.00;;;;;25.50;48.09;101096.84;5078017;27;45386;-76
2022/07/31 09:14:54;;;;;;;;;7.00;7.00;;;;;25.46;47.63;101107.06;5077882;27;45301;-76
2022/07/31 09:17:34;;;;;;;;;7.75;7.75;;;;;25.28;47.81;101109.63;5077633;27;45463;-75
2022/07/31 09:20:00;;;;;;;;;7.00;7.00;;;;;25.16;48.40;101108.09;5077496;28;45679;-78
2022/07/31 09:22:28;;;;;;;;;7.75;7.75;;;;;25.18;48.72;101098.03;5076160;27;45420;-77
2022/07/31 09:25:04;;;;;;;;;8.25;8.25;;;;;25.15;48.11;101091.09;5076617;27;45470;-79
2022/07/31 09:27:29;;;;;;;;;8.50;8.50;;;;;25.09;47.88;101100.63;5077884;27;45318;-75
2022/07/31 09:29:55;;;;;;;;;7.75;7.75;;;;;24.96;48.35;101102.75;5077900;27;46654;-78
2022/07/31 09:32:21;;;;;;;;;8.00;8.00;;;;;24.79;48.72;101098.94;5082159;27;45301;-80
2022/07/31 09:34:48;;;;;;;;;8.00;7.25;;;;;24.71;48.81;101096.09;5080290;27;45204;-78
2022/07/31 09:37:17;;;;;;;;;10.50;10.50;;;;;24.67;49.01;101097.34;5078012;27;45571;-76
2022/07/31 09:39:54;;;;;;;;;9.00;9.00;;;;;24.63;49.58;101107.53;5075914;27;47159;-74
2022/07/31 09:42:21;;;;;;;;;9.00;9.00;;;;;24.54;48.81;101103.00;5077642;27;45564;-79
2022/07/31 09:44:48;;;;;;;;;10.00;10.00;;;;;24.35;49.36;101105.53;5077651;27;45397;-73
2022/07/31 09:47:27;;;;;;;;;8.50;8.50;;;;;24.30;49.59;101107.78;5077696;27;45520;-73
2022/07/31 09:50:04;;;;;;;;;9.00;9.00;;;;;24.25;48.93;101101.97;5077637;27;46073;-73
2022/07/31 09:52:31;;;;;;;;;9.25;9.25;;;;;24.27;49.37;101109.91;5077364;27;45464;-76
2022/07/31 09:55:04;;;;;;;;;9.75;9.75;;;;;24.33;49.74;101110.19;5086413;27;45415;-74
2022/07/31 09:57:29;;;;;;;;;11.25;11.25;;;;;24.42;49.10;101113.91;5080510;27;45201;-73
2022/07/31 09:59:55;;;;;;;;;10.25;10.25;;;;;24.50;49.31;101110.53;5077255;27;46000;-74
2022/07/31 10:02:20;;;;;;;;;9.50;9.50;;;;;24.62;48.79;101113.91;5077276;27;45356;-76
2022/07/31 10:04:49;;;;;;;;;10.75;10.75;;;;;24.69;49.24;101119.59;5077392;27;45788;-74
2022/07/31 10:07:15;;;;;;;;;7.50;7.50;;;;;24.80;48.46;101112.22;5078205;27;45546;-80
2022/07/31 10:09:42;;;;;;;;;13.25;13.25;;;;;24.86;48.73;101108.13;5076560;27;45444;-77
2022/07/31 10:12:13;;;;;;;;;8.00;8.00;;;;;24.93;48.51;101109.25;5076438;27;45405;-77
2022/07/31 10:14:42;;;;;;;;;11.00;11.00;;;;;24.87;47.93;101101.75;5076845;27;45338;-75
2022/07/31 10:17:09;;;;;;;;;11.25;11.25;;;;;24.87;48.36;101106.28;5075550;27;45636;-75
2022/07/31 10:19:37;;;;;;;;;9.25;9.25;;;;;24.75;48.39;101100.22;5075749;27;45480;-76
2022/07/31 10:22:04;;;;;;;;;9.50;9.50;;;;;24.79;47.95;101097.09;5076319;27;45232;-77
2022/07/31 10:24:34;;;;;;;;;9.75;9.75;;;;;24.79;48.68;101098.94;5077073;27;45319;-82
2022/07/31 10:27:00;;;;;;;;;7.50;7.50;;;;;24.79;48.50;101094.41;5077685;27;45656;-78
2022/07/31 10:29:26;;;;;;;;;10.75;10.75;;;;;24.79;48.29;101088.19;5077400;27;45256;-77
2022/07/31 10:31:52;;;;;;;;;9.25;9.25;;;;;24.82;48.81;101090.59;5077988;27;45289;-77
2022/07/31 10:34:18;;;;;;;;;10.00;10.00;;;;;24.88;48.03;101094.53;5077783;27;45212;-78
2022/07/31 10:36:47;;;;;;;;;8.50;8.50;;;;;24.95;47.97;101098.38;5077802;27;45577;-79
2022/07/31 10:39:30;;;;;;;;;9.50;9.50;;;;;25.09;48.03;101084.47;5078191;27;45342;-77
2022/07/31 10:42:18;;;;;;;;;9.50;9.50;;;;;25.24;47.53;101079.44;5079322;27;45361;-75
2022/07/31 10:44:49;;;;;;;;;7.25;7.25;;;;;25.30;47.38;101088.81;5089617;27;44752;-73
2022/07/31 10:47:16;;;;;;;;;7.00;7.00;;;;;25.30;47.77;101082.56;5087720;27;45196;-79
2022/07/31 10:49:45;;;;;;;;;11.50;11.50;;;;;25.37;47.87;101087.22;5070645;28;47560;-78
2022/07/31 10:52:11;;;;;;;;;7.75;7.75;;;;;25.49;47.88;101077.16;5080789;28;45217;-77
2022/07/31 10:54:46;;;;;;;;;20.25;20.25;;;;;25.67;47.47;101065.59;5081220;27;45294;-73
2022/07/31 10:57:25;;;;;;;;;8.25;8.25;;;;;25.77;47.27;101066.41;5078319;27;45241;-79
2022/07/31 10:59:51;;;;;;;;;9.00;9.00;;;;;25.75;47.25;101079.16;5077545;27;46318;-76
2022/07/31 11:02:29;;;;;;;;;10.00;10.00;;;;;25.63;47.38;101075.81;5076914;27;45362;-77
2022/07/31 11:05:22;;;;;;;;;7.75;7.75;;;;;25.63;47.13;101085.75;5078237;27;45231;-72
2022/07/31 11:08:00;;;;;;;;;8.50;8.50;;;;;25.59;47.61;101082.50;5077489;27;46098;-74
2022/07/31 11:10:26;;;;;;;;;9.00;9.00;;;;;25.62;47.72;101084.06;5076822;28;45164;-76
2022/07/31 11:13:06;;;;;;;;;13.25;13.25;;;;;25.75;47.19;101076.47;5076843;27;45341;-78
2022/07/31 11:15:32;;;;;;;;;10.00;10.00;;;;;25.76;47.26;101064.69;5076638;28;45314;-72
2022/07/31 11:18:09;;;;;;;;;10.00;9.25;;;;;25.87;47.04;101071.72;5075407;27;45359;-71
2022/07/31 11:20:34;;;;;;;;;8.25;8.25;;;;;25.89;46.78;101074.28;5076333;27;46246;-74
2022/07/31 11:23:04;;;;;;;;;7.50;7.50;;;;;25.94;46.34;101077.38;5074728;27;45867;-73
2022/07/31 11:25:33;;;;;;;;;7.25;7.25;;;;;25.98;46.55;101067.97;5076786;27;45215;-74
2022/07/31 11:28:17;;;;;;;;;8.25;8.25;;;;;26.03;46.56;101072.94;5076696;27;45243;-74